Time;durP1;ratioP1;P1;durP2;ratioP2;P2;SDS_P1;SDS_P2;PMS_P1;PMS_P2;Temp;Humidity;BMP_temperature;BMP_pressure;BME280_temperature;BME280_humidity;BME280_pressure;Samples;Min_cycle;Max_cycle;Signal;HPM_P1;HPM_P2
2020/12/08 00:00:21;;;;;;;24.92;13.03;;;;;;;-7.77;76.84;101274.34;1799702;77;21321;-46
2020/12/08 00:02:50;;;;;;;27.52;11.55;;;;;;;-7.77;76.93;101275.65;1803725;77;20969;-49
2020/12/08 00:09:08;;;;;;;28.20;12.70;;;;;;;-7.72;77.03;101278.49;1743597;79;23126;-47
2020/12/08 00:11:36;;;;;;;31.15;13.62;;;;;;;-7.77;77.05;101259.05;1719346;82;20997;-48
2020/12/08 00:14:05;;;;;;;25.35;12.40;;;;;;;-7.76;77.03;101271.30;1720313;82;21326;-49
2020/12/08 00:16:33;;;;;;;26.20;12.15;;;;;;;-7.78;77.03;101257.22;1723726;82;21026;-48
2020/12/08 00:19:01;;;;;;;29.48;11.78;;;;;;;-7.76;77.01;101260.83;1718866;82;21025;-48
2020/12/08 00:21:29;;;;;;;27.82;11.40;;;;;;;-7.73;77.03;101260.95;1726503;80;21030;-48
2020/12/08 00:23:56;;;;;;;33.33;13.68;;;;;;;-7.71;76.93;101251.47;1721445;80;20987;-47
2020/12/08 00:26:24;;;;;;;30.50;14.20;;;;;;;-7.72;76.86;101252.30;1719645;80;22326;-48
2020/12/08 00:28:52;;;;;;;29.40;12.73;;;;;;;-7.76;76.86;101238.16;1720838;80;21046;-48
2020/12/08 00:31:26;;;;;;;27.73;12.63;;;;;;;-7.77;76.96;101240.72;1720843;82;21141;-48
2020/12/08 00:34:02;;;;;;;36.77;12.82;;;;;;;-7.71;76.93;101243.62;1788090;76;22399;-49
2020/12/08 00:36:30;;;;;;;24.30;13.18;;;;;;;-7.78;76.86;101239.78;1771006;79;21005;-47
2020/12/08 00:38:59;;;;;;;24.80;12.78;;;;;;;-7.83;76.94;101237.77;1763461;79;21676;-48
2020/12/08 00:41:27;;;;;;;29.00;12.30;;;;;;;-7.83;77.07;101238.70;1773458;79;21092;-48
2020/12/08 00:43:54;;;;;;;27.42;11.68;;;;;;;-7.79;76.98;101238.00;1767626;79;21609;-48
2020/12/08 00:46:22;;;;;;;25.57;12.40;;;;;;;-7.81;76.91;101233.53;1769328;79;20994;-53
2020/12/08 00:48:50;;;;;;;24.52;11.08;;;;;;;-7.82;77.05;101227.81;1767057;79;20970;-51
2020/12/08 00:51:19;;;;;;;21.35;10.98;;;;;;;-7.78;76.81;101225.80;1773557;79;21304;-49
2020/12/08 00:53:47;;;;;;;24.12;11.38;;;;;;;-7.83;76.71;101229.92;1739099;80;21021;-49
2020/12/08 00:56:15;;;;;;;23.98;12.25;;;;;;;-7.92;76.75;101228.68;1768611;79;21005;-51
2020/12/08 00:58:45;;;;;;;23.35;12.28;;;;;;;-7.98;76.92;101217.92;1761989;79;20998;-50
2020/12/08 01:01:15;;;;;;;24.67;11.90;;;;;;;-8.02;77.13;101218.59;1766366;79;21097;-50
2020/12/08 01:03:42;;;;;;;25.45;11.45;;;;;;;-8.04;77.20;101219.33;1740438;79;22295;-51
2020/12/08 01:06:10;;;;;;;23.57;11.43;;;;;;;-8.05;77.25;101211.89;1763916;79;21018;-50
2020/12/08 01:08:39;;;;;;;21.50;9.53;;;;;;;-8.01;77.41;101228.23;1763224;79;21457;-50
2020/12/08 01:11:08;;;;;;;25.35;11.22;;;;;;;-7.99;77.24;101226.61;1764607;79;20978;-51
2020/12/08 01:13:38;;;;;;;21.35;11.73;;;;;;;-8.01;77.19;101220.37;1763734;79;21521;-51
2020/12/08 01:16:07;;;;;;;22.13;10.88;;;;;;;-8.02;77.23;101208.12;1764050;79;21553;-51
2020/12/08 01:18:35;;;;;;;24.02;12.33;;;;;;;-7.99;77.21;101210.90;1762270;79;21041;-51
2020/12/08 01:21:03;;;;;;;23.42;10.43;;;;;;;-8.01;77.25;101211.63;1763548;79;21140;-51
2020/12/08 01:23:31;;;;;;;23.07;11.55;;;;;;;-8.04;77.29;101211.09;1762220;79;21136;-50
2020/12/08 01:26:00;;;;;;;23.92;10.45;;;;;;;-7.98;77.37;101215.30;1765097;79;21566;-49
2020/12/08 01:28:27;;;;;;;20.95;10.50;;;;;;;-7.97;77.26;101222.33;1761765;79;21429;-50
2020/12/08 01:30:57;;;;;;;20.08;9.85;;;;;;;-7.97;77.14;101215.78;1767020;79;20970;-51
2020/12/08 01:33:26;;;;;;;23.83;11.53;;;;;;;-8.04;77.16;101215.02;1760018;79;21026;-49
2020/12/08 01:35:54;;;;;;;20.27;11.05;;;;;;;-8.05;77.35;101219.73;1759079;79;21430;-51
2020/12/08 01:38:23;;;;;;;25.95;10.40;;;;;;;-8.05;77.36;101222.77;1752745;79;21097;-49
2020/12/08 01:40:55;;;;;;;23.02;9.88;;;;;;;-8.03;77.48;101226.37;1759472;79;21338;-51
2020/12/08 01:43:24;;;;;;;28.67;12.88;;;;;;;-8.03;77.40;101219.42;1753250;79;21010;-51
2020/12/08 01:45:52;;;;;;;22.05;11.90;;;;;;;-8.05;77.44;101219.73;1752675;79;21127;-49
2020/12/08 01:48:20;;;;;;;24.27;13.00;;;;;;;-8.07;77.56;101222.70;1751501;79;22045;-51
2020/12/08 01:50:48;;;;;;;23.77;11.90;;;;;;;-8.08;77.72;101220.92;1736283;79;21192;-50
2020/12/08 01:53:16;;;;;;;20.10;11.03;;;;;;;-8.08;77.78;101219.61;1755405;79;21172;-51
2020/12/08 01:55:47;;;;;;;23.02;11.25;;;;;;;-8.09;77.81;101221.75;1750852;79;21030;-49
2020/12/08 02:00:53;;;;;;;24.12;10.35;;;;;;;-8.02;77.99;101218.59;1815700;76;22829;-51
2020/12/08 02:03:21;;;;;;;25.27;11.30;;;;;;;-8.06;78.01;101214.03;1771793;77;20977;-50
2020/12/08 02:05:50;;;;;;;24.27;11.57;;;;;;;-8.06;78.10;101207.48;1741217;79;21660;-50
2020/12/08 02:08:29;;;;;;;38.10;12.45;;;;;;;-8.05;78.13;101210.58;1745317;79;21033;-50
2020/12/08 02:10:58;;;;;;;23.22;10.78;;;;;;;-8.04;78.20;101215.02;1743480;79;20954;-50
2020/12/08 02:13:26;;;;;;;22.73;11.57;;;;;;;-8.02;78.26;101219.90;1745291;79;21578;-49
2020/12/08 02:15:54;;;;;;;23.62;11.50;;;;;;;-8.01;78.26;101223.00;1744354;79;20978;-49
2020/12/08 02:18:22;;;;;;;22.10;11.55;;;;;;;-7.99;78.28;101216.13;1742667;79;21439;-50
2020/12/08 02:20:57;;;;;;;25.32;11.12;;;;;;;-8.01;78.37;101215.14;1746027;79;21037;-50
2020/12/08 02:23:26;;;;;;;27.70;12.00;;;;;;;-8.01;78.47;101224.30;1745771;79;21064;-51
2020/12/08 02:26:00;;;;;;;27.00;12.03;;;;;;;-8.00;78.62;101225.20;1740990;79;21228;-51
2020/12/08 02:28:28;;;;;;;19.62;11.65;;;;;;;-7.97;78.61;101218.81;1739965;79;20989;-51
2020/12/08 02:30:56;;;;;;;32.10;13.60;;;;;;;-7.95;78.65;101212.81;1726236;79;22088;-50
2020/12/08 02:33:26;;;;;;;21.12;11.12;;;;;;;-7.91;78.58;101217.38;1741162;79;21174;-50
2020/12/08 02:35:56;;;;;;;23.38;11.60;;;;;;;-7.91;78.58;101214.77;1743368;79;21147;-49
2020/12/08 02:38:24;;;;;;;25.90;12.00;;;;;;;-7.89;78.67;101208.69;1742221;79;21108;-50
2020/12/08 02:40:53;;;;;;;26.60;13.10;;;;;;;-7.87;78.65;101209.68;1745908;79;21128;-51
2020/12/08 02:43:22;;;;;;;23.32;10.48;;;;;;;-7.85;78.63;101215.88;1747081;79;21354;-50
2020/12/08 02:45:50;;;;;;;29.15;10.85;;;;;;;-7.84;78.72;101210.70;1748476;79;21013;-50
2020/12/08 02:48:18;;;;;;;25.68;12.37;;;;;;;-7.81;78.68;101215.20;1745191;79;21010;-51
2020/12/08 02:50:48;;;;;;;22.62;12.37;;;;;;;-7.80;78.69;101213.06;1742563;79;21623;-49
2020/12/08 02:53:16;;;;;;;23.30;13.22;;;;;;;-7.79;78.73;101216.16;1747702;79;21156;-50
2020/12/08 02:55:47;;;;;;;28.73;13.28;;;;;;;-7.78;78.77;101216.22;1748323;79;22203;-50
2020/12/08 02:58:16;;;;;;;31.40;14.85;;;;;;;-7.74;78.81;101215.96;1738332;79;21960;-52
2020/12/08 03:00:45;;;;;;;41.50;14.47;;;;;;;-7.73;78.84;101205.97;1774270;78;21123;-48
2020/12/08 03:03:14;;;;;;;32.75;14.65;;;;;;;-7.73;78.89;101216.44;1769751;78;21024;-48
2020/12/08 03:05:41;;;;;;;34.88;14.47;;;;;;;-7.72;79.02;101205.16;1766000;78;21554;-49
2020/12/08 03:08:09;;;;;;;34.65;15.68;;;;;;;-7.69;79.08;101201.36;1768055;78;21404;-48
2020/12/08 03:10:37;;;;;;;34.53;15.25;;;;;;;-7.65;79.12;101194.14;1768479;78;21157;-49
2020/12/08 03:13:06;;;;;;;26.25;12.33;;;;;;;-7.62;79.07;101202.11;1767501;78;21022;-47
2020/12/08 03:15:35;;;;;;;29.48;14.15;;;;;;;-7.62;79.11;101203.42;1764157;78;21487;-48
2020/12/08 03:18:02;;;;;;;31.73;13.88;;;;;;;-7.64;79.21;101203.78;1768158;78;22015;-48
2020/12/08 03:20:31;;;;;;;33.02;15.88;;;;;;;-7.62;79.41;101197.30;1756482;78;22253;-48
2020/12/08 03:23:00;;;;;;;31.17;14.18;;;;;;;-7.60;79.45;101195.24;1768412;78;21006;-49
2020/12/08 03:25:28;;;;;;;28.47;13.68;;;;;;;-7.61;79.54;101190.84;1742826;78;21152;-48
2020/12/08 03:27:55;;;;;;;33.92;13.03;;;;;;;-7.58;79.64;101204.47;1768602;78;21093;-48
2020/12/08 03:30:24;;;;;;;27.07;13.45;;;;;;;-7.57;79.65;101195.36;1764236;78;20966;-49
2020/12/08 03:32:53;;;;;;;23.98;12.03;;;;;;;-7.58;79.71;101196.20;1767728;78;21579;-48
2020/12/08 03:35:22;;;;;;;29.75;13.75;;;;;;;-7.58;79.85;101188.34;1766476;78;21947;-49
2020/12/08 03:37:51;;;;;;;32.75;13.10;;;;;;;-7.58;79.93;101194.89;1766432;78;21021;-48
2020/12/08 03:40:19;;;;;;;24.52;12.98;;;;;;;-7.58;80.00;101189.65;1767391;78;21001;-48
2020/12/08 03:42:47;;;;;;;28.67;12.88;;;;;;;-7.58;80.04;101183.10;1766766;78;21112;-49
2020/12/08 03:45:15;;;;;;;28.67;13.15;;;;;;;-7.57;80.13;101176.14;1766970;78;21407;-48
2020/12/08 03:47:48;;;;;;;19.92;11.95;;;;;;;-7.55;80.17;101181.95;1766909;78;21164;-49
2020/12/08 03:50:17;;;;;;;23.65;12.13;;;;;;;-7.53;80.15;101181.59;1767327;78;21050;-48
2020/12/08 03:52:45;;;;;;;21.95;11.70;;;;;;;-7.51;80.22;101179.95;1771182;78;21128;-49
2020/12/08 03:55:13;;;;;;;25.00;12.47;;;;;;;-7.50;80.18;101173.88;1765701;78;21621;-49
2020/12/08 03:57:41;;;;;;;25.02;12.70;;;;;;;-7.50;80.18;101173.88;1766075;78;21352;-52
2020/12/08 04:00:10;;;;;;;25.75;12.58;;;;;;;-7.51;80.29;101178.64;1756982;78;21230;-49
2020/12/08 04:02:43;;;;;;;27.10;13.70;;;;;;;-7.53;80.39;101169.80;1740196;79;21344;-47
2020/12/08 04:05:13;;;;;;;23.55;12.05;;;;;;;-7.54;80.45;101181.53;1745007;79;21042;-47
2020/12/08 04:07:41;;;;;;;22.58;12.40;;;;;;;-7.59;80.59;101173.45;1740938;79;21034;-51
2020/12/08 04:10:10;;;;;;;26.60;12.30;;;;;;;-7.55;80.74;101179.33;1741194;79;21852;-48
2020/12/08 04:12:38;;;;;;;24.32;11.97;;;;;;;-7.55;80.70;101181.95;1742384;79;21179;-48
2020/12/08 04:15:06;;;;;;;25.10;12.55;;;;;;;-7.56;80.78;101170.99;1742125;79;21074;-48
2020/12/08 04:17:34;;;;;;;25.23;12.58;;;;;;;-7.58;80.92;101172.63;1746291;79;21128;-48
2020/12/08 04:20:02;;;;;;;33.23;14.78;;;;;;;-7.57;81.03;101177.03;1721346;81;21704;-47
2020/12/08 04:22:31;;;;;;;27.37;14.20;;;;;;;-7.58;80.96;101173.94;1741692;79;21189;-48
2020/12/08 04:25:00;;;;;;;26.17;12.07;;;;;;;-7.57;81.05;101170.48;1741214;79;21005;-48
2020/12/08 04:27:28;;;;;;;28.85;13.00;;;;;;;-7.56;81.08;101176.23;1741354;79;21029;-49
2020/12/08 04:29:58;;;;;;;29.02;13.78;;;;;;;-7.58;81.12;101174.34;1740132;79;21179;-48
2020/12/08 04:32:28;;;;;;;30.45;13.62;;;;;;;-7.62;81.24;101169.37;1746274;79;21013;-48
2020/12/08 04:34:56;;;;;;;28.90;13.60;;;;;;;-7.63;81.43;101161.05;1744182;79;21362;-48
2020/12/08 04:37:24;;;;;;;32.63;14.80;;;;;;;-7.64;81.63;101163.19;1742645;79;21175;-48
2020/12/08 04:39:52;;;;;;;27.85;13.30;;;;;;;-7.67;81.69;101164.34;1703321;82;21126;-49
2020/12/08 04:42:19;;;;;;;29.15;13.53;;;;;;;-7.67;81.83;101165.65;1742452;79;21116;-48
2020/12/08 04:44:47;;;;;;;25.43;13.30;;;;;;;-7.67;81.82;101167.89;1740814;79;21457;-48
2020/12/08 04:47:21;;;;;;;24.55;11.08;;;;;;;-7.67;81.81;101170.50;1738208;79;21386;-50
2020/12/08 04:49:55;;;;;;;29.98;14.03;;;;;;;-7.69;81.75;101162.08;1746028;79;21565;-51
2020/12/08 04:52:23;;;;;;;25.92;12.07;;;;;;;-7.73;81.75;101164.06;1743019;79;21600;-48
2020/12/08 04:54:50;;;;;;;26.20;13.78;;;;;;;-7.78;81.94;101174.73;1721408;79;21131;-49
2020/12/08 04:57:18;;;;;;;28.07;13.30;;;;;;;-7.79;82.02;101167.30;1740450;79;21048;-51
2020/12/08 04:59:46;;;;;;;32.17;14.20;;;;;;;-7.82;81.98;101167.17;1744995;79;21346;-49
2020/12/08 05:02:14;;;;;;;24.50;12.25;;;;;;;-7.82;82.08;101164.98;1754686;79;21141;-49
2020/12/08 05:04:41;;;;;;;32.10;14.55;;;;;;;-7.82;82.14;101162.36;1749487;79;21144;-49
2020/12/08 05:07:09;;;;;;;31.52;14.40;;;;;;;-7.85;82.14;101166.13;1750629;79;21005;-51
2020/12/08 05:09:46;;;;;;;33.18;14.70;;;;;;;-7.88;82.22;101177.38;1762135;79;21574;-54
2020/12/08 05:12:23;;;;;;;32.63;14.47;;;;;;;-7.91;82.21;101171.56;1756128;79;21140;-54
2020/12/08 05:14:51;;;;;;;25.77;13.43;;;;;;;-7.89;82.20;101168.11;1756073;79;21120;-51
2020/12/08 05:17:22;;;;;;;27.50;13.62;;;;;;;-7.91;82.19;101171.56;1708660;81;21121;-52
2020/12/08 05:20:07;;;;;;;29.52;12.60;;;;;;;-7.92;82.22;101176.32;1709979;81;21101;-51
2020/12/08 05:22:35;;;;;;;37.17;15.80;;;;;;;-7.93;82.23;101178.46;1711601;81;21164;-51
2020/12/08 05:25:12;;;;;;;31.10;16.35;;;;;;;-7.93;82.21;101173.22;1708681;81;21192;-51
2020/12/08 05:27:40;;;;;;;28.15;14.20;;;;;;;-7.95;82.20;101162.19;1712425;81;21006;-52
2020/12/08 05:30:08;;;;;;;29.27;13.65;;;;;;;-8.00;82.29;101169.81;1681787;81;21164;-51
2020/12/08 05:32:40;;;;;;;23.25;12.20;;;;;;;-8.01;82.42;101162.79;1742448;81;21543;-47
2020/12/08 05:35:23;;;;;;;29.80;12.78;;;;;;;-8.01;82.30;101167.13;1703041;83;21041;-47
2020/12/08 05:37:54;;;;;;;26.87;12.15;;;;;;;-8.03;82.36;101171.00;1714736;81;22003;-47
2020/12/08 05:40:24;;;;;;;25.62;15.70;;;;;;;-8.03;82.33;101168.38;1756587;80;21030;-46
2020/12/08 05:42:54;;;;;;;28.80;13.53;;;;;;;-8.04;82.32;101170.52;1754727;79;21568;-47
2020/12/08 05:45:23;;;;;;;28.15;13.60;;;;;;;-8.07;82.25;101171.67;1754659;80;21144;-47
2020/12/08 05:47:56;;;;;;;28.77;14.25;;;;;;;-8.06;82.30;101173.45;1759769;80;20955;-47
2020/12/08 05:50:26;;;;;;;25.00;12.78;;;;;;;-8.04;82.22;101174.45;1752658;79;22230;-47
2020/12/08 05:52:58;;;;;;;23.15;12.18;;;;;;;-8.05;82.13;101171.31;1751904;79;21118;-46
2020/12/08 05:55:31;;;;;;;;;;;;;;;-8.07;82.15;101169.47;1758959;79;21513;-48
2020/12/08 05:58:07;;;;;;;28.38;13.30;;;;;;;-8.05;82.21;101166.50;1754527;79;20306;-49
2020/12/08 06:00:37;;;;;;;24.87;13.53;;;;;;;-8.05;82.18;101163.47;1759432;78;21763;-48
2020/12/08 06:03:14;;;;;;;30.45;13.50;;;;;;;-8.05;82.17;101177.86;1767248;78;21581;-47
2020/12/08 06:05:45;;;;;;;31.17;14.53;;;;;;;-8.01;82.21;101179.81;1764893;78;21195;-48
2020/12/08 06:08:19;;;;;;;23.95;13.65;;;;;;;-8.00;82.19;101182.91;1764031;78;21185;-46
2020/12/08 06:10:52;;;;;;;34.60;15.20;;;;;;;-8.05;82.24;101184.41;1765298;78;21666;-51
2020/12/08 06:13:27;;;;;;;30.25;14.80;;;;;;;-8.05;82.39;101184.41;1766233;78;21187;-56
2020/12/08 06:15:55;;;;;;;32.85;17.12;;;;;;;-8.04;82.60;101178.38;1761253;78;21176;-57
2020/12/08 06:18:39;;;;;;;30.32;14.83;;;;;;;-8.04;82.64;101175.76;1763875;78;21570;-55
2020/12/08 06:21:27;;;;;;;28.60;13.40;;;;;;;-8.05;82.71;101185.72;1766670;78;21144;-57
2020/12/08 06:23:59;;;;;;;33.78;15.32;;;;;;;-8.03;82.88;101177.55;1768006;78;21139;-58
2020/12/08 06:26:37;;;;;;;44.83;16.50;;;;;;;-8.00;82.93;101182.91;1769179;78;21124;-59
2020/12/08 06:29:10;;;;;;;36.93;15.65;;;;;;;-8.01;83.09;101170.64;1764496;78;22314;-57
2020/12/08 06:31:47;;;;;;;32.17;14.35;;;;;;;-7.98;83.40;101162.95;1801674;78;22779;-57
2020/12/08 06:34:29;;;;;;;33.15;15.58;;;;;;;-8.02;83.44;101174.09;1804006;77;20989;-57
2020/12/08 06:37:09;;;;;;;27.07;13.40;;;;;;;-8.00;83.62;101175.47;1805011;77;22148;-50
2020/12/08 06:39:37;;;;;;;26.97;12.98;;;;;;;-8.01;83.72;101175.88;1805250;77;21002;-49
2020/12/08 06:42:13;;;;;;;26.12;11.97;;;;;;;-7.99;83.85;101182.11;1770221;79;20982;-50
2020/12/08 06:44:41;;;;;;;27.98;12.58;;;;;;;-7.96;83.96;101178.30;1804796;77;21065;-50
2020/12/08 06:47:08;;;;;;;30.72;14.83;;;;;;;-7.93;83.99;101186.31;1805556;77;21002;-47
2020/12/08 06:49:41;;;;;;;30.77;14.78;;;;;;;-7.92;84.03;101167.16;1799138;77;21196;-49
2020/12/08 06:52:09;;;;;;;32.60;15.93;;;;;;;-7.92;83.98;101173.70;1802721;77;20978;-48
2020/12/08 06:54:37;;;;;;;31.97;15.60;;;;;;;-7.92;84.09;101168.47;1802622;77;21005;-50
2020/12/08 06:57:05;;;;;;;31.85;14.93;;;;;;;-7.87;84.04;101188.73;1771896;77;21546;-49
2020/12/08 06:59:33;;;;;;;36.70;15.10;;;;;;;-7.87;83.98;101180.88;1802563;77;21017;-52
2020/12/08 07:02:01;;;;;;;40.55;16.17;;;;;;;-7.81;83.99;101174.61;1802988;77;22183;-49
2020/12/08 07:04:29;;;;;;;35.30;16.55;;;;;;;-7.80;83.89;101172.47;1801250;77;21014;-54
2020/12/08 07:07:00;;;;;;;33.95;16.00;;;;;;;-7.79;83.83;101176.88;1800924;77;21573;-62
2020/12/08 07:09:33;;;;;;;33.28;15.13;;;;;;;-7.78;83.71;101174.73;1761867;77;20985;-54
2020/12/08 07:12:02;;;;;;;31.87;14.87;;;;;;;-7.76;83.54;101178.34;1799825;77;21119;-57
2020/12/08 07:14:30;;;;;;;39.30;15.35;;;;;;;-7.78;83.38;101170.81;1802938;77;22084;-51
2020/12/08 07:16:57;;;;;;;29.18;15.50;;;;;;;-7.80;83.38;101178.61;1800553;77;21668;-56
2020/12/08 07:19:27;;;;;;;32.20;15.05;;;;;;;-7.81;83.40;101175.92;1802955;77;21473;-51
2020/12/08 07:22:01;;;;;;;46.92;20.00;;;;;;;-7.83;83.63;101173.63;1773529;77;20986;-52
2020/12/08 07:24:30;;;;;;;50.92;19.75;;;;;;;-7.82;83.80;101168.91;1774999;79;21072;-52
2020/12/08 07:26:59;;;;;;;49.42;21.25;;;;;;;-7.80;83.77;101169.86;1805143;77;21317;-54
2020/12/08 07:29:27;;;;;;;43.83;19.82;;;;;;;-7.79;83.82;101176.47;1804828;77;21672;-54
2020/12/08 07:31:54;;;;;;;37.63;16.80;;;;;;;-7.78;83.74;101174.73;1753865;77;21097;-53
2020/12/08 07:34:24;;;;;;;33.10;16.95;;;;;;;-7.76;83.81;101175.73;1809889;77;20982;-52
2020/12/08 07:36:52;;;;;;;34.27;16.55;;;;;;;-7.73;83.69;101178.47;1808237;77;21144;-52
2020/12/08 07:39:20;;;;;;;29.52;15.50;;;;;;;-7.75;83.40;101172.28;1805862;77;21414;-58
2020/12/08 07:41:48;;;;;;;40.10;17.77;;;;;;;-7.75;83.41;101181.44;1807581;77;21140;-59
2020/12/08 07:44:17;;;;;;;44.18;19.05;;;;;;;-7.76;83.48;101179.23;1807289;77;21115;-50
2020/12/08 07:46:51;;;;;;;42.03;17.25;;;;;;;-7.76;83.71;101179.66;1806552;77;20926;-53
2020/12/08 07:49:19;;;;;;;32.40;16.27;;;;;;;-7.75;83.61;101168.34;1805431;77;20974;-51
2020/12/08 07:51:50;;;;;;;34.70;17.42;;;;;;;-7.76;83.48;101169.18;1803860;77;22246;-51
2020/12/08 07:54:18;;;;;;;42.60;15.88;;;;;;;-7.72;83.31;101175.05;1803316;77;28129;-51
2020/12/08 07:56:45;;;;;;;45.30;18.37;;;;;;;-7.72;83.28;101167.19;1805688;77;21028;-50
2020/12/08 07:59:13;;;;;;;46.75;19.85;;;;;;;-7.70;83.34;101177.31;1807758;77;21013;-55
2020/12/08 08:01:43;;;;;;;49.23;18.80;;;;;;;-7.69;83.51;101163.39;1804257;77;21100;-54
2020/12/08 08:04:11;;;;;;;38.30;17.50;;;;;;;-7.63;83.60;101186.34;1804365;77;21430;-53
2020/12/08 08:06:39;;;;;;;36.15;17.05;;;;;;;-7.61;83.35;101175.13;1802923;77;21406;-57
2020/12/08 08:09:07;;;;;;;36.98;18.05;;;;;;;-7.59;83.28;101168.22;1806662;77;21516;-48
2020/12/08 08:11:36;;;;;;;38.30;19.27;;;;;;;-7.54;83.42;101169.33;1801691;77;21147;-54
2020/12/08 08:14:04;;;;;;;48.70;18.48;;;;;;;-7.51;83.36;101164.23;1801756;78;20962;-52
2020/12/08 08:16:34;;;;;;;37.15;15.43;;;;;;;-7.47;83.47;101175.31;1804117;77;21420;-54
2020/12/08 08:19:02;;;;;;;32.05;15.18;;;;;;;-7.44;83.32;101171.53;1805835;77;21014;-52
2020/12/08 08:21:31;;;;;;;26.50;14.13;;;;;;;-7.42;83.04;101171.17;1806129;77;20985;-55
2020/12/08 08:23:59;;;;;;;34.45;16.52;;;;;;;-7.40;82.57;101169.95;1805371;77;21038;-52
2020/12/08 08:26:28;;;;;;;39.85;17.92;;;;;;;-7.39;82.77;101163.88;1804892;77;21081;-54
2020/12/08 08:28:56;;;;;;;38.23;18.40;;;;;;;-7.36;82.90;101173.17;1803120;77;21174;-50
2020/12/08 08:31:24;;;;;;;39.00;17.10;;;;;;;-7.28;83.07;101178.35;1806306;77;21056;-53
2020/12/08 08:33:52;;;;;;;43.02;17.87;;;;;;;-7.25;82.96;101171.92;1810314;77;21088;-48
2020/12/08 08:36:20;;;;;;;45.05;19.95;;;;;;;-7.20;82.88;101165.58;1805769;77;21108;-60
2020/12/08 08:38:48;;;;;;;43.00;17.98;;;;;;;-7.19;82.72;101169.98;1806058;77;21092;-51
2020/12/08 08:41:17;;;;;;;36.68;17.52;;;;;;;-7.17;82.64;101160.06;1808742;77;22013;-55
2020/12/08 08:43:45;;;;;;;40.23;18.77;;;;;;;-7.15;82.84;101150.94;1810326;77;21131;-53
2020/12/08 08:46:13;;;;;;;46.88;18.70;;;;;;;-7.12;83.08;101157.64;1808500;77;21582;-51
2020/12/08 08:48:41;;;;;;;38.08;17.07;;;;;;;-7.08;82.99;101156.03;1808310;77;21101;-54
2020/12/08 08:51:09;;;;;;;40.78;19.35;;;;;;;-7.05;83.05;101150.52;1808581;77;21156;-46
2020/12/08 08:53:37;;;;;;;32.63;15.20;;;;;;;-7.02;82.88;101151.97;1808312;77;21344;-52
2020/12/08 08:56:05;;;;;;;34.50;16.85;;;;;;;-7.01;82.18;101147.20;1808839;77;21021;-51
2020/12/08 08:58:33;;;;;;;36.33;16.70;;;;;;;-6.98;82.16;101139.45;1809994;77;21152;-50
2020/12/08 09:01:01;;;;;;;37.58;17.57;;;;;;;-6.96;82.14;101135.19;1812577;77;20970;-60
2020/12/08 09:03:29;;;;;;;44.00;17.55;;;;;;;-6.90;82.05;101134.12;1812094;77;20970;-51
2020/12/08 09:05:57;;;;;;;41.50;17.90;;;;;;;-6.86;81.80;101137.36;1810887;77;21361;-49
2020/12/08 09:08:25;;;;;;;43.38;16.12;;;;;;;-6.84;81.50;101139.15;1810610;77;21109;-54
2020/12/08 09:10:53;;;;;;;32.70;14.75;;;;;;;-6.84;81.09;101139.15;1808032;77;21096;-56
2020/12/08 09:13:22;;;;;;;42.17;18.50;;;;;;;-6.86;81.00;101139.09;1806713;77;21175;-53
2020/12/08 09:15:50;;;;;;;32.95;16.02;;;;;;;-6.79;81.10;101137.61;1808858;77;21159;-56
2020/12/08 09:18:19;;;;;;;32.67;15.55;;;;;;;-6.74;80.99;101140.02;1811502;77;21396;-51
2020/12/08 09:20:47;;;;;;;41.35;15.65;;;;;;;-6.68;80.90;101134.59;1808697;77;21124;-55
2020/12/08 09:23:15;;;;;;;38.73;15.83;;;;;;;-6.63;80.63;101130.86;1809609;77;21132;-52
2020/12/08 09:25:43;;;;;;;31.68;15.80;;;;;;;-6.66;80.27;101135.58;1811750;77;20990;-52
2020/12/08 09:28:11;;;;;;;29.82;13.32;;;;;;;-6.64;80.13;101130.38;1809784;77;21085;-50
2020/12/08 09:30:39;;;;;;;25.43;13.30;;;;;;;-6.70;79.62;101135.38;1808974;77;21319;-50
2020/12/08 09:33:07;;;;;;;29.10;14.45;;;;;;;-6.71;79.65;101128.32;1793167;78;21123;-51
2020/12/08 09:35:35;;;;;;;32.80;15.68;;;;;;;-6.70;79.61;101140.62;1793040;78;20974;-50
2020/12/08 09:38:03;;;;;;;34.60;16.37;;;;;;;-6.66;79.75;101132.95;1793294;78;21121;-50
2020/12/08 09:40:33;;;;;;;38.42;14.90;;;;;;;-6.62;79.41;101120.84;1793310;78;21109;-52
2020/12/08 09:43:01;;;;;;;41.90;18.70;;;;;;;-6.55;79.42;101136.02;1792817;78;21351;-57
2020/12/08 09:45:30;;;;;;;32.20;15.70;;;;;;;-6.47;79.27;101133.69;1794122;78;20998;-50
2020/12/08 09:47:58;;;;;;;30.00;16.25;;;;;;;-6.39;78.89;101128.31;1793365;78;21100;-50
2020/12/08 09:50:26;;;;;;;29.00;14.40;;;;;;;-6.39;78.39;101126.61;1792852;78;20975;-53
2020/12/08 09:52:54;;;;;;;36.55;17.30;;;;;;;-6.40;78.33;101135.72;1792680;78;21103;-52
2020/12/08 09:55:22;;;;;;;26.52;13.80;;;;;;;-6.42;78.10;101121.23;1792987;78;21263;-50
2020/12/08 09:57:50;;;;;;;27.60;13.00;;;;;;;-6.42;78.10;101122.96;1792316;78;21002;-50
2020/12/08 10:00:19;;;;;;;46.25;16.32;;;;;;;-6.39;78.05;101135.80;1791346;78;21106;-50
2020/12/08 10:02:47;;;;;;;38.65;16.27;;;;;;;-6.38;78.22;101137.58;1791066;78;21021;-51
2020/12/08 10:05:15;;;;;;;43.63;16.75;;;;;;;-6.37;78.23;101134.12;1794851;78;20955;-50
2020/12/08 10:07:43;;;;;;;48.78;18.77;;;;;;;-6.35;78.54;101132.44;1792825;78;21118;-52
2020/12/08 10:10:11;;;;;;;44.25;18.05;;;;;;;-6.35;78.61;101140.31;1754985;80;20998;-51
2020/12/08 10:12:39;;;;;;;38.63;16.07;;;;;;;-6.32;78.79;101125.54;1753120;79;20989;-50
2020/12/08 10:15:07;;;;;;;34.10;15.98;;;;;;;-6.30;78.88;101144.86;1755118;80;21081;-50
2020/12/08 10:17:35;;;;;;;40.65;17.17;;;;;;;-6.35;79.10;101145.56;1707085;81;21140;-53
2020/12/08 10:20:03;;;;;;;40.20;18.12;;;;;;;-6.34;79.27;101136.88;1704420;81;21369;-52
2020/12/08 10:22:31;;;;;;;33.60;14.90;;;;;;;-6.29;79.53;101130.47;1733022;80;21164;-52
2020/12/08 10:24:59;;;;;;;50.75;20.60;;;;;;;-6.22;79.43;101119.82;1792707;78;21653;-52
2020/12/08 10:27:27;;;;;;;40.00;15.65;;;;;;;-6.20;79.52;101126.02;1790557;78;20963;-52
2020/12/08 10:29:56;;;;;;;37.00;16.87;;;;;;;-6.20;79.48;101120.77;1793320;78;20971;-50
2020/12/08 10:32:24;;;;;;;38.02;17.40;;;;;;;-6.18;79.53;101122.63;1792902;78;22252;-51
2020/12/08 10:34:52;;;;;;;37.98;17.55;;;;;;;-6.19;79.51;101122.55;1793144;78;21562;-52
2020/12/08 10:37:20;;;;;;;37.60;16.48;;;;;;;-6.16;79.64;101123.58;1792626;78;20986;-52
2020/12/08 10:39:48;;;;;;;37.17;16.57;;;;;;;-6.11;79.58;101120.71;1791690;78;21104;-56
2020/12/08 10:42:17;;;;;;;38.02;17.02;;;;;;;-6.07;79.11;101115.17;1791616;78;21018;-57
2020/12/08 10:44:46;;;;;;;33.18;15.50;;;;;;;-6.08;79.19;101112.04;1791815;78;21117;-52
2020/12/08 10:47:14;;;;;;;34.98;16.62;;;;;;;-6.05;78.89;101112.59;1793827;78;21573;-53
2020/12/08 10:49:43;;;;;;;35.00;15.55;;;;;;;-6.03;78.97;101107.86;1792026;78;21132;-54
2020/12/08 10:52:11;;;;;;;41.53;18.30;;;;;;;-5.98;79.14;101121.17;1792930;78;21566;-57
2020/12/08 10:54:39;;;;;;;39.18;17.42;;;;;;;-5.98;79.31;101110.25;1795209;78;21121;-57
2020/12/08 10:57:07;;;;;;;39.42;17.23;;;;;;;-5.92;79.38;101115.73;1792983;78;21205;-54
2020/12/08 10:59:35;;;;;;;33.85;16.95;;;;;;;-5.90;79.25;101110.52;1793563;78;21161;-53
2020/12/08 11:02:03;;;;;;;30.40;15.55;;;;;;;-5.91;79.28;101113.57;1793231;78;21090;-53
2020/12/08 11:04:31;;;;;;;40.60;17.77;;;;;;;-5.90;79.63;101110.52;1793663;78;21109;-54
2020/12/08 11:07:00;;;;;;;24.92;14.58;;;;;;;-5.87;79.87;101107.57;1793036;78;21037;-52
2020/12/08 11:09:28;;;;;;;26.40;13.53;;;;;;;-5.86;79.17;101118.58;1795411;78;22325;-53
2020/12/08 11:11:56;;;;;;;31.42;16.23;;;;;;;-5.88;79.19;101111.04;1793666;78;21573;-56
2020/12/08 11:14:24;;;;;;;35.43;17.07;;;;;;;-5.87;79.29;101116.77;1794022;78;21125;-55
2020/12/08 11:16:52;;;;;;;34.50;16.97;;;;;;;-5.86;79.33;101110.70;1792774;78;21678;-54
2020/12/08 11:19:21;;;;;;;36.33;17.15;;;;;;;-5.85;79.53;101120.78;1786496;78;21089;-54
2020/12/08 11:21:50;;;;;;;32.13;16.30;;;;;;;-5.85;79.88;101104.60;1793993;78;21326;-55
2020/12/08 11:24:20;;;;;;;34.48;16.48;;;;;;;-5.83;79.96;101110.80;1789043;78;20986;-53